LQSAEGPF

Guest
Details From LQSA - Sarajevo
To EGPF - Glasgow
Flight Number -
Tags Generated
Created
Modified
Stats Distance 1,131 nm / 2,095 km
Max Altitude 0 ft / 0 m
Waypoints 6
Social Downloads 1
Likes 0
Share VATSIM

Download

Looking for another format? Having issues loading an existing format? Contact us
Advertisement - Login to hide

Notes

Generated

Route

LQSA KFT NSN68 VELNI LANAK EGPF

ID Type Via Altitude Latitude Longitude Leg Dist Tot Dist Heading (true) Name
O LQSA APT - 0 ft / 0 m 43.82997˚ 18.31714˚ - 0 nm - -
KFT NDB - 0 ft / 0 m 46.62515˚ 14.53416˚ 231 nm 231 nm 318° / 315° KLAGENFURT NDB
NSN68 FIX - 0 ft / 0 m 49.41834˚ 10.11012˚ 244 nm 476 nm 315° / 312° -
VELNI FIX - 0 ft / 0 m 51.52667˚ 6.20139˚ 195 nm 671 nm 312° / 309° -
LANAK FIX - 0 ft / 0 m 55.70299˚ -3.93516˚ 439 nm 1110 nm 309° / 301° -
O EGPF APT - 0 ft / 0 m 55.87222˚ -4.44472˚ 19 nm 1130 nm 301° / 300° -

Altitude Profile

Advertisement - Login to hide

Weather


0- 5 10 15 20 25 30 35+ Temperature / ° C

Clouds and Precipitation
Forecast for 2017-12-13 12:00 UTC. Updated 2 hours ago

Ground ~20,000 ft ~40,000 ft Winds

LQSA

Details ICAO LQSA (SJJ)
Name Sarajevo
Region Bosnia and Herzegovinia
Timezone Europe/Sarajevo (UTC+1.0)
Stats Elevation 1,708 ft / 521 m (AMSL)
Location 43.824597° 18.331500°
Runways 1
Magnetic Variation 4.222° E

METAR

LQSA 131300Z 13006KT 6000 RA FEW010 SCT020 OVC050 06/06 Q1016 NOSIG

Decode

TAF

Not found

Departure Runways

ID Width Length Bearing (true) Bearing (mag) Surface Threshold Offset Overrun Length
12 150 ft / 46 m 8,519 ft / 2,597 m 117.41° 113.19° Asphalt 333 ft / 102 m 0 ft / 0 m
30 150 ft / 46 m 8,519 ft / 2,597 m 297.43° 293.21° Asphalt 666 ft / 203 m 0 ft / 0 m

EGPF

Details ICAO EGPF (GLA)
Name Glasgow
Region United Kingdom
Timezone Europe/London (UTC+0.0)
Stats Elevation 26 ft / 8 m (AMSL)
Location 55.871728° -4.433648°
Runways 1
Magnetic Variation 2.732° W

METAR

EGPF 131250Z AUTO 21009KT 9999 SCT035 04/01 Q0984

Decode

TAF

TAF TAF EGPF 131108Z 1312/1412 25009KT 9999 FEW008 SCT015CB TEMPO 1312/1409 4000 -SHRASN SHGS BKN007 PROB40 TEMPO 1315/1403 1400 SHSN BKN003 TEMPO 1409/1412 4000 SHRAGS BKN007

Decode

Destination Runways

ID Width Length Bearing (true) Bearing (mag) Surface Threshold Offset Overrun Length
05 151 ft / 46 m 8,721 ft / 2,658 m 46.34° 49.07° Asphalt 0 ft / 0 m 499 ft / 152 m
23 151 ft / 46 m 8,721 ft / 2,658 m 226.37° 229.10° Asphalt 1,004 ft / 306 m 0 ft / 0 m

Approach Navaids

Runway Type Ident Frequency Range Bearing (true) Bearing (mag) Slope Elevation
05 Localiser IUU 110.10 MHz 18 nm / 33 km 46.37° 49.10° - 26 ft / 8 m (AMSL)
05 Glidescope IUU 110.10 MHz 10 nm / 19 km 46.36° 49.09° 3.00° 52 ft / 16 m (AMSL)
05 DME IUU 110.10 MHz 18 nm / 33 km - - - 25 ft / 8 m (AMSL)
23 Localiser IOO 110.10 MHz 18 nm / 33 km 226.33° 229.07° - 26 ft / 8 m (AMSL)
23 Glidescope IOO 110.10 MHz 10 nm / 19 km 226.36° 229.09° 3.00° 50 ft / 15 m (AMSL)
23 DME IOO 110.10 MHz 18 nm / 33 km - - - 25 ft / 8 m (AMSL)